createdAt,value
2019-01-31T00:01:27.990Z,99504.74
2019-01-31T00:04:31.759Z,99499.92
2019-01-31T00:07:25.188Z,99502.77
2019-01-31T00:10:56.648Z,99504.69
2019-01-31T00:13:55.721Z,99500.61
2019-01-31T00:17:06.674Z,99499.06
2019-01-31T00:20:01.555Z,99495.04
2019-01-31T00:23:09.071Z,99498.13
2019-01-31T00:26:11.839Z,99504.19
2019-01-31T00:29:24.778Z,99504.13
2019-01-31T00:32:17.525Z,99496.28
2019-01-31T00:35:05.264Z,99498.50
2019-01-31T00:38:00.791Z,99492.81
2019-01-31T00:40:58.853Z,99491.39
2019-01-31T00:44:21.869Z,99492.69
2019-01-31T00:47:17.640Z,99499.06
2019-01-31T00:50:05.984Z,99499.80
2019-01-31T00:53:31.784Z,99498.25
2019-01-31T00:56:23.673Z,99496.21
2019-01-31T00:59:17.003Z,99501.03
2019-01-31T01:02:24.341Z,99501.91
2019-01-31T01:05:43.886Z,99502.70
2019-01-31T01:08:37.063Z,99496.52
2019-01-31T01:11:43.665Z,99508.41
2019-01-31T01:14:53.983Z,99505.36
2019-01-31T01:18:18.502Z,99509.56
2019-01-31T01:21:15.679Z,99504.34
2019-01-31T01:24:25.527Z,99509.62
2019-01-31T01:27:19.759Z,99513.95
2019-01-31T01:30:06.677Z,99512.14
2019-01-31T01:33:03.785Z,99510.19
2019-01-31T01:36:04.652Z,99513.50
2019-01-31T01:39:18.990Z,99523.39
2019-01-31T01:42:15.057Z,99525.09
2019-01-31T01:45:11.615Z,99513.39
2019-01-31T01:48:02.527Z,99519.15
2019-01-31T01:51:02.367Z,99524.88
2019-01-31T01:53:44.425Z,99525.67
2019-01-31T01:56:48.693Z,99520.33
2019-01-31T01:59:48.772Z,99527.99
2019-01-31T02:02:55.274Z,99528.35
2019-01-31T02:05:53.725Z,99532.06
2019-01-31T02:09:18.452Z,99519.91
2019-01-31T02:12:26.756Z,99525.52
2019-01-31T02:15:20.919Z,99522.63
2019-01-31T02:18:14.526Z,99526.22
2019-01-31T02:21:08.906Z,99527.00
2019-01-31T02:24:14.440Z,99521.77
2019-01-31T02:27:10.561Z,99523.68
2019-01-31T02:30:20.970Z,99528.75
2019-01-31T02:33:33.736Z,99531.34
2019-01-31T02:36:37.812Z,99524.89
2019-01-31T02:40:02.517Z,99534.78
2019-01-31T02:43:02.526Z,99528.17
2019-01-31T02:46:17.851Z,99538.38
2019-01-31T02:49:28.339Z,99531.58
2019-01-31T02:52:17.955Z,99530.22
2019-01-31T02:55:06.820Z,99535.33
2019-01-31T02:58:06.130Z,99539.65
2019-01-31T03:00:58.563Z,99535.69
2019-01-31T03:04:30.231Z,99537.36
2019-01-31T03:07:28.422Z,99543.88
2019-01-31T03:10:24.542Z,99548.06
2019-01-31T03:13:30.790Z,99540.20
2019-01-31T03:16:52.182Z,99533.63
2019-01-31T03:20:01.678Z,99536.63
2019-01-31T03:23:19.818Z,99538.54
2019-01-31T03:26:20.982Z,99540.58
2019-01-31T03:29:16.353Z,99535.14
2019-01-31T03:32:00.844Z,99551.77
2019-01-31T03:35:02.578Z,99561.55
2019-01-31T03:38:17.784Z,99561.23
2019-01-31T03:41:15.131Z,99552.70
2019-01-31T03:44:16.961Z,99557.77
2019-01-31T03:47:21.316Z,99561.11
2019-01-31T03:50:34.736Z,99566.86
2019-01-31T03:53:44.882Z,99564.39
2019-01-31T03:56:47.249Z,99561.23
2019-01-31T03:59:20.978Z,99564.66
2019-01-31T04:02:19.964Z,99567.54
2019-01-31T04:05:04.959Z,99576.16
2019-01-31T04:07:34.215Z,99575.53
2019-01-31T04:10:03.453Z,99582.08
2019-01-31T04:12:33.030Z,99583.14
2019-01-31T04:15:02.246Z,99600.00
2019-01-31T04:17:31.498Z,99586.29
2019-01-31T04:20:00.750Z,99591.59
2019-01-31T04:22:29.977Z,99593.20
2019-01-31T04:24:59.325Z,99591.34
2019-01-31T04:27:28.603Z,99598.77
2019-01-31T04:29:57.931Z,99602.05
2019-01-31T04:32:27.194Z,99604.34
2019-01-31T04:34:56.457Z,99606.63
2019-01-31T04:37:25.769Z,99606.18
2019-01-31T04:39:55.160Z,99609.84
2019-01-31T04:42:24.405Z,99612.13
2019-01-31T04:44:54.024Z,99606.06
2019-01-31T04:47:23.460Z,99609.40
2019-01-31T04:49:52.717Z,99609.10
2019-01-31T04:52:21.965Z,99606.56
2019-01-31T04:54:51.275Z,99613.73
2019-01-31T04:57:20.543Z,99616.83
2019-01-31T04:59:49.845Z,99623.19
2019-01-31T05:02:19.094Z,99622.08
2019-01-31T05:04:48.394Z,99628.02
2019-01-31T05:07:17.785Z,99629.70
2019-01-31T05:09:47.261Z,99632.35
2019-01-31T05:12:16.504Z,99627.60
2019-01-31T05:14:45.799Z,99631.37
2019-01-31T05:17:15.055Z,99627.27
2019-01-31T05:19:44.282Z,99636.06
2019-01-31T05:22:13.517Z,99630.17
2019-01-31T05:24:42.714Z,99627.58
2019-01-31T05:27:11.988Z,99630.05
2019-01-31T05:29:41.349Z,99624.51
2019-01-31T05:32:10.608Z,99628.90
2019-01-31T05:34:39.896Z,99632.17
2019-01-31T05:37:09.195Z,99633.83
2019-01-31T05:39:38.450Z,99623.23
2019-01-31T05:42:07.777Z,99622.64
2019-01-31T05:44:37.133Z,99621.09
2019-01-31T05:47:06.415Z,99633.94
2019-01-31T05:49:35.667Z,99641.19
2019-01-31T05:52:04.996Z,99643.86
2019-01-31T05:54:34.447Z,99633.94
2019-01-31T05:57:03.709Z,99637.29
2019-01-31T05:59:32.980Z,99636.06
2019-01-31T06:02:02.205Z,99642.53
2019-01-31T06:04:31.785Z,99642.69
2019-01-31T06:07:11.046Z,99645.13
2019-01-31T06:09:32.040Z,99650.03
2019-01-31T06:12:01.551Z,99649.03
2019-01-31T06:14:30.854Z,99645.16
2019-01-31T06:17:00.129Z,99654.22
2019-01-31T06:19:29.459Z,99647.80
2019-01-31T06:21:58.680Z,99652.32
2019-01-31T06:24:27.923Z,99656.66
2019-01-31T06:26:57.141Z,99652.63
2019-01-31T06:29:26.448Z,99658.77
2019-01-31T06:31:55.823Z,99652.06
2019-01-31T06:34:25.189Z,99656.84
2019-01-31T06:36:54.458Z,99649.05
2019-01-31T06:39:23.775Z,99649.23
2019-01-31T06:41:53.031Z,99658.94
2019-01-31T06:44:22.281Z,99661.23
2019-01-31T06:46:51.679Z,99664.47
2019-01-31T06:49:21.072Z,99674.39
2019-01-31T06:51:50.333Z,99667.33
2019-01-31T06:54:19.778Z,99665.09
2019-01-31T06:56:49.064Z,99680.63
2019-01-31T06:59:18.385Z,99670.78
2019-01-31T07:01:47.687Z,99669.92
2019-01-31T07:04:17.068Z,99677.09
2019-01-31T07:06:46.280Z,99676.37
2019-01-31T07:09:15.567Z,99675.84
2019-01-31T07:11:44.995Z,99676.37
2019-01-31T07:14:14.718Z,99689.89
2019-01-31T07:16:44.084Z,99681.66
2019-01-31T07:19:13.365Z,99682.67
2019-01-31T07:21:42.745Z,99682.19
2019-01-31T07:24:12.059Z,99685.27
2019-01-31T07:29:36.715Z,99690.58
2019-01-31T07:32:05.957Z,99691.52
2019-01-31T07:35:14.617Z,99696.95
2019-01-31T07:37:43.876Z,99696.17
2019-01-31T07:40:52.941Z,99695.70
2019-01-31T07:43:22.164Z,99704.88
2019-01-31T07:45:51.462Z,99697.70
2019-01-31T07:51:31.047Z,99703.23
2019-01-31T07:54:00.263Z,99698.84
2019-01-31T07:56:29.743Z,99708.17
2019-01-31T07:58:59.011Z,99704.20
2019-01-31T08:01:28.345Z,99701.73
2019-01-31T08:04:02.497Z,99704.84
2019-01-31T08:06:28.685Z,99707.49
2019-01-31T08:08:57.947Z,99711.39
2019-01-31T08:11:27.245Z,99711.20
2019-01-31T08:13:56.554Z,99715.83
2019-01-31T08:16:26.098Z,99719.36
2019-01-31T08:18:55.385Z,99723.19
2019-01-31T08:21:24.909Z,99727.03
2019-01-31T08:23:54.208Z,99723.45
2019-01-31T08:26:23.469Z,99725.50
2019-01-31T08:28:52.787Z,99733.22
2019-01-31T08:31:22.140Z,99734.87
2019-01-31T08:33:51.535Z,99736.03
2019-01-31T08:36:20.778Z,99730.44
2019-01-31T08:38:50.111Z,99736.33
2019-01-31T08:41:19.333Z,99741.95
2019-01-31T08:43:48.651Z,99748.47
2019-01-31T08:46:18.114Z,99755.56
2019-01-31T08:48:48.178Z,99746.84
2019-01-31T08:51:17.860Z,99756.45
2019-01-31T08:53:47.372Z,99761.22
2019-01-31T08:56:16.763Z,99759.36
2019-01-31T08:58:46.362Z,99764.17
2019-01-31T09:01:15.763Z,99779.45
2019-01-31T09:03:45.788Z,99766.59
2019-01-31T09:06:15.276Z,99765.68
2019-01-31T09:08:44.684Z,99775.25
2019-01-31T09:11:13.961Z,99775.69
2019-01-31T09:13:43.268Z,99774.66
2019-01-31T09:16:12.495Z,99778.61
2019-01-31T09:18:41.727Z,99776.20
2019-01-31T09:21:35.878Z,99787.10
2019-01-31T09:24:42.871Z,99777.67
2019-01-31T09:28:08.706Z,99785.85
2019-01-31T09:31:34.358Z,99793.20
2019-01-31T09:34:40.985Z,99784.11
2019-01-31T09:38:00.438Z,99792.35
2019-01-31T09:40:53.814Z,99790.87
2019-01-31T09:44:06.845Z,99792.15
2019-01-31T09:47:07.723Z,99797.84
2019-01-31T09:50:11.224Z,99803.04
2019-01-31T09:53:17.271Z,99803.35
2019-01-31T09:56:21.128Z,99803.61
2019-01-31T09:59:07.329Z,99802.52
2019-01-31T10:02:09.026Z,99804.63
2019-01-31T10:04:57.403Z,99810.42
2019-01-31T10:07:43.254Z,99809.70
2019-01-31T10:10:40.324Z,99817.13
2019-01-31T10:14:05.984Z,99815.36
2019-01-31T10:16:50.414Z,99819.52
2019-01-31T10:19:44.192Z,99817.05
2019-01-31T10:22:46.485Z,99818.48
2019-01-31T10:25:56.951Z,99814.87
2019-01-31T10:29:13.399Z,99821.50
2019-01-31T10:32:11.652Z,99818.84
2019-01-31T10:35:09.469Z,99823.94
2019-01-31T10:38:28.630Z,99827.89
2019-01-31T10:41:48.647Z,99819.83
2019-01-31T10:44:36.553Z,99820.72
2019-01-31T10:47:39.015Z,99823.45
2019-01-31T10:50:37.495Z,99813.21
2019-01-31T10:53:36.270Z,99821.81
2019-01-31T10:56:45.386Z,99816.75
2019-01-31T10:59:44.177Z,99815.65
2019-01-31T11:02:49.860Z,99821.89
2019-01-31T11:06:12.362Z,99823.94
2019-01-31T11:09:28.533Z,99821.21
2019-01-31T11:12:27.440Z,99831.13
2019-01-31T11:15:24.925Z,99827.97
2019-01-31T11:18:44.096Z,99831.25
2019-01-31T11:21:54.573Z,99833.85
2019-01-31T11:24:44.752Z,99830.86
2019-01-31T11:27:38.601Z,99829.81
2019-01-31T11:30:39.255Z,99836.01
2019-01-31T11:33:44.494Z,99828.52
2019-01-31T11:36:42.439Z,99837.00
2019-01-31T11:39:51.434Z,99830.94
2019-01-31T11:43:14.309Z,99828.64
2019-01-31T11:46:15.669Z,99837.17
2019-01-31T11:49:04.636Z,99832.59
2019-01-31T11:52:33.288Z,99845.55
2019-01-31T11:55:30.059Z,99840.78
2019-01-31T11:58:20.634Z,99833.70
2019-01-31T12:00:52.904Z,99837.61
2019-01-31T12:04:20.781Z,99837.03
2019-01-31T12:06:50.173Z,99839.81
2019-01-31T12:09:20.724Z,99837.98
2019-01-31T12:11:50.583Z,99834.61
2019-01-31T12:14:20.035Z,99833.50
2019-01-31T12:16:49.281Z,99832.87
2019-01-31T12:19:18.759Z,99830.05
2019-01-31T12:21:48.232Z,99836.28
2019-01-31T12:24:18.082Z,99831.79
2019-01-31T12:26:47.443Z,99821.59
2019-01-31T12:29:16.836Z,99826.30
2019-01-31T12:31:46.202Z,99830.11
2019-01-31T12:34:15.658Z,99824.02
2019-01-31T12:36:44.971Z,99823.23
2019-01-31T12:39:14.546Z,99818.78
2019-01-31T12:41:43.907Z,99819.72
2019-01-31T12:44:13.445Z,99826.91
2019-01-31T12:46:42.871Z,99830.36
2019-01-31T12:49:12.200Z,99822.00
2019-01-31T12:51:41.598Z,99820.89
2019-01-31T12:54:11.031Z,99812.94
2019-01-31T12:56:40.441Z,99811.78
2019-01-31T12:59:09.829Z,99802.47
2019-01-31T13:01:39.298Z,99796.55
2019-01-31T13:04:08.731Z,99802.87
2019-01-31T13:06:38.362Z,99802.69
2019-01-31T13:10:05.434Z,99800.80
2019-01-31T13:12:35.004Z,99800.16
2019-01-31T13:15:22.431Z,99813.11
2019-01-31T13:17:54.106Z,99805.11
2019-01-31T13:20:24.937Z,99808.05
2019-01-31T13:22:56.804Z,99806.33
2019-01-31T13:25:27.229Z,99807.75
2019-01-31T13:27:56.860Z,99807.25
2019-01-31T13:30:26.399Z,99811.33
2019-01-31T13:32:56.877Z,99804.72
2019-01-31T13:35:26.172Z,99803.30
2019-01-31T13:37:55.621Z,99804.02
2019-01-31T13:40:26.572Z,99806.20
2019-01-31T13:42:56.801Z,99806.20
2019-01-31T13:45:37.461Z,99805.83
2019-01-31T13:48:12.876Z,99804.83
2019-01-31T13:50:42.341Z,99809.19
2019-01-31T13:53:11.935Z,99804.98
2019-01-31T13:56:00.249Z,99806.97
2019-01-31T13:58:29.496Z,99801.91
2019-01-31T14:00:59.002Z,99804.56
2019-01-31T14:06:37.022Z,99801.37
2019-01-31T14:09:47.437Z,99803.28
2019-01-31T14:12:56.257Z,99807.88
2019-01-31T14:16:06.164Z,99811.23
2019-01-31T14:19:14.959Z,99801.56
2019-01-31T14:21:44.344Z,99804.41
2019-01-31T14:24:54.648Z,99804.22
2019-01-31T14:28:03.292Z,99803.86
2019-01-31T14:31:12.907Z,99802.56
2019-01-31T14:34:21.564Z,99803.45
2019-01-31T14:36:50.788Z,99807.35
2019-01-31T14:39:59.460Z,99806.43
2019-01-31T14:45:37.361Z,99807.61
2019-01-31T14:53:50.231Z,99813.48
2019-01-31T14:56:19.443Z,99810.61
2019-01-31T14:59:28.089Z,99819.05
2019-01-31T15:04:52.927Z,99815.44
2019-01-31T15:07:22.261Z,99815.52
2019-01-31T15:12:47.175Z,99815.70
2019-01-31T15:15:55.848Z,99816.16
2019-01-31T15:21:33.933Z,99818.43
2019-01-31T15:24:03.175Z,99814.36
2019-01-31T15:26:32.429Z,99821.72
2019-01-31T15:29:03.832Z,99813.75
2019-01-31T15:35:14.075Z,99814.86
2019-01-31T15:37:43.354Z,99814.41
2019-01-31T15:40:53.498Z,99809.65
2019-01-31T15:43:22.727Z,99810.27
2019-01-31T15:45:51.972Z,99808.89
2019-01-31T15:54:44.659Z,99816.16
2019-01-31T15:57:16.633Z,99813.37
2019-01-31T15:59:44.902Z,99815.62
2019-01-31T16:02:14.137Z,99812.52
2019-01-31T16:04:43.364Z,99817.80
2019-01-31T16:13:42.924Z,99821.68
2019-01-31T16:16:12.203Z,99817.23
2019-01-31T16:21:36.964Z,99816.80
2019-01-31T16:30:49.987Z,99828.44
2019-01-31T16:36:14.498Z,99825.85
2019-01-31T16:38:43.808Z,99826.20
2019-01-31T16:44:51.225Z,99823.06
2019-01-31T16:47:20.490Z,99826.05
2019-01-31T16:49:49.729Z,99830.25
2019-01-31T16:52:19.011Z,99831.35
2019-01-31T16:58:36.328Z,99833.71
2019-01-31T17:01:45.278Z,99837.05
2019-01-31T17:04:14.591Z,99834.83
2019-01-31T17:06:43.781Z,99839.72
2019-01-31T17:09:52.454Z,99837.80
2019-01-31T17:12:21.749Z,99832.22
2019-01-31T17:14:51.164Z,99846.63
2019-01-31T17:17:20.411Z,99840.87
2019-01-31T17:20:29.053Z,99841.20
2019-01-31T17:26:00.399Z,99835.25
2019-01-31T17:34:19.870Z,99837.27
2019-01-31T17:39:57.959Z,99834.58
2019-01-31T17:43:06.610Z,99835.44
2019-01-31T17:45:35.854Z,99835.63
2019-01-31T17:48:44.513Z,99851.19
2019-01-31T17:54:03.989Z,99854.27
2019-01-31T17:56:33.213Z,99845.98
2019-01-31T18:04:52.999Z,99846.55
2019-01-31T18:07:22.240Z,99841.16
2019-01-31T18:09:51.518Z,99843.38
2019-01-31T18:12:20.929Z,99838.22
2019-01-31T18:14:50.209Z,99838.72
2019-01-31T18:17:19.475Z,99836.94
2019-01-31T18:20:28.165Z,99835.02
2019-01-31T18:22:57.377Z,99841.20
2019-01-31T18:25:26.675Z,99834.76
2019-01-31T18:27:56.069Z,99844.84
2019-01-31T18:31:05.832Z,99833.82
2019-01-31T18:34:14.709Z,99835.61
2019-01-31T18:36:45.662Z,99829.97
2019-01-31T18:39:54.607Z,99836.60
2019-01-31T18:42:23.873Z,99826.56
2019-01-31T18:44:53.139Z,99822.44
2019-01-31T18:47:23.950Z,99820.82
2019-01-31T18:49:53.228Z,99830.86
2019-01-31T18:55:31.219Z,99821.70
2019-01-31T18:58:00.474Z,99814.77
2019-01-31T19:01:10.195Z,99806.78
2019-01-31T19:04:18.863Z,99809.98
2019-01-31T19:06:48.127Z,99807.22
2019-01-31T19:12:13.010Z,99804.42
2019-01-31T19:20:38.302Z,99818.41
2019-01-31T19:23:26.562Z,99812.48
2019-01-31T19:26:35.243Z,99820.77
2019-01-31T19:32:13.245Z,99818.20
2019-01-31T19:34:42.528Z,99812.16
2019-01-31T19:38:01.592Z,99819.28
2019-01-31T19:40:24.505Z,99823.66
2019-01-31T19:43:33.237Z,99818.56
2019-01-31T19:46:02.518Z,99819.45
2019-01-31T19:48:38.924Z,99816.05
2019-01-31T19:51:47.593Z,99818.66
2019-01-31T19:54:16.838Z,99820.89
2019-01-31T19:56:46.398Z,99815.48
2019-01-31T19:59:15.666Z,99818.14
2019-01-31T20:01:45.203Z,99811.82
2019-01-31T20:07:55.660Z,99811.31
2019-01-31T20:10:26.392Z,99812.81
2019-01-31T20:12:56.041Z,99807.44
2019-01-31T20:16:01.503Z,99814.91
2019-01-31T20:18:30.905Z,99810.52
2019-01-31T20:21:00.284Z,99808.16
2019-01-31T20:24:02.690Z,99810.48
2019-01-31T20:26:32.091Z,99807.44
2019-01-31T20:29:01.430Z,99812.16
2019-01-31T20:31:30.831Z,99814.30
2019-01-31T20:34:00.308Z,99808.44
2019-01-31T20:36:29.856Z,99816.63
2019-01-31T20:38:59.339Z,99812.59
2019-01-31T20:42:07.537Z,99815.42
2019-01-31T20:44:37.043Z,99818.06
2019-01-31T20:47:54.484Z,99813.62
2019-01-31T20:50:29.102Z,99814.70
2019-01-31T20:52:58.871Z,99811.02
2019-01-31T20:55:28.283Z,99810.43
2019-01-31T20:57:57.945Z,99815.41
2019-01-31T21:00:54.514Z,99820.70
2019-01-31T21:03:24.835Z,99819.73
2019-01-31T21:05:54.364Z,99816.82
2019-01-31T21:08:23.889Z,99817.23
2019-01-31T21:10:53.389Z,99815.88
2019-01-31T21:13:22.956Z,99821.55
2019-01-31T21:15:53.003Z,99815.13
2019-01-31T21:18:22.728Z,99816.95
2019-01-31T21:20:52.143Z,99817.73
2019-01-31T21:23:21.515Z,99815.13
2019-01-31T21:25:50.811Z,99807.62
2019-01-31T21:28:20.073Z,99812.78
2019-01-31T21:30:49.543Z,99808.42
2019-01-31T21:33:19.001Z,99808.91
2019-01-31T21:35:48.399Z,99811.83
2019-01-31T21:38:17.735Z,99810.55
2019-01-31T21:40:47.028Z,99808.14
2019-01-31T21:43:16.365Z,99803.73
2019-01-31T21:45:45.688Z,99807.50
2019-01-31T21:48:15.064Z,99801.36
2019-01-31T21:50:44.436Z,99799.75
2019-01-31T21:53:13.963Z,99799.90
2019-01-31T21:55:43.259Z,99797.62
2019-01-31T21:58:12.693Z,99796.03
2019-01-31T22:00:41.961Z,99800.41
2019-01-31T22:03:11.631Z,99796.20
2019-01-31T22:05:40.881Z,99797.70
2019-01-31T22:08:10.202Z,99796.20
2019-01-31T22:10:39.561Z,99795.08
2019-01-31T22:13:08.972Z,99792.48
2019-01-31T22:15:38.570Z,99790.30
2019-01-31T22:18:17.995Z,99782.53
2019-01-31T22:20:47.509Z,99780.58
2019-01-31T22:23:16.923Z,99789.66
2019-01-31T22:25:46.166Z,99782.86
2019-01-31T22:28:15.518Z,99783.98
2019-01-31T22:30:44.809Z,99770.55
2019-01-31T22:33:14.122Z,99778.19
2019-01-31T22:35:43.374Z,99779.63
2019-01-31T22:38:12.798Z,99777.03
2019-01-31T22:40:42.254Z,99775.10
2019-01-31T22:43:11.549Z,99782.39
2019-01-31T22:45:40.926Z,99776.91
2019-01-31T22:48:10.211Z,99773.85
2019-01-31T22:50:39.550Z,99768.03
2019-01-31T22:53:08.827Z,99765.08
2019-01-31T22:55:38.351Z,99767.05
2019-01-31T22:58:08.695Z,99770.63
2019-01-31T23:01:26.740Z,99764.46
2019-01-31T23:03:56.140Z,99771.58
2019-01-31T23:06:25.948Z,99768.98
2019-01-31T23:08:55.204Z,99767.03
2019-01-31T23:11:24.843Z,99768.98
2019-01-31T23:13:54.144Z,99769.95
2019-01-31T23:16:23.415Z,99769.17
2019-01-31T23:18:52.743Z,99765.31
2019-01-31T23:21:22.023Z,99760.78
2019-01-31T23:23:51.367Z,99758.52
2019-01-31T23:26:20.746Z,99758.37
2019-01-31T23:28:50.149Z,99754.48
2019-01-31T23:31:19.376Z,99753.19
2019-01-31T23:33:48.656Z,99751.91
2019-01-31T23:36:18.025Z,99752.37
2019-01-31T23:38:47.303Z,99749.14
2019-01-31T23:41:16.588Z,99746.06
2019-01-31T23:43:45.810Z,99739.91
2019-01-31T23:46:15.127Z,99741.37
2019-01-31T23:48:44.375Z,99742.50
2019-01-31T23:51:13.604Z,99738.61
2019-01-31T23:53:42.946Z,99741.54
2019-01-31T23:56:12.247Z,99739.29
2019-01-31T23:58:41.548Z,99737.68
